createdAt,value
2019-01-12T00:02:48.864Z,94.80
2019-01-12T00:08:50.256Z,94.80
2019-01-12T00:14:51.661Z,94.90
2019-01-12T00:20:53.076Z,94.70
2019-01-12T00:26:54.485Z,94.60
2019-01-12T00:32:55.932Z,94.30
2019-01-12T00:38:57.335Z,94.30
2019-01-12T00:44:58.696Z,94.60
2019-01-12T00:51:00.209Z,94.50
2019-01-12T00:57:02.500Z,94.30
2019-01-12T01:03:05.063Z,94.50
2019-01-12T01:09:07.572Z,94.60
2019-01-12T01:15:09.980Z,94.60
2019-01-12T01:21:11.292Z,94.90
2019-01-12T01:27:12.701Z,94.90
2019-01-12T01:33:14.144Z,95.00
2019-01-12T01:39:15.425Z,95.20
2019-01-12T01:45:16.880Z,95.10
2019-01-12T01:51:18.935Z,95.20
2019-01-12T01:57:21.265Z,95.20
2019-01-12T02:03:22.776Z,95.10
2019-01-12T02:09:24.128Z,95.20
2019-01-12T02:15:25.492Z,95.10
2019-01-12T02:21:26.900Z,95.30
2019-01-12T02:27:28.360Z,95.20
2019-01-12T02:33:29.792Z,95.20
2019-01-12T02:39:31.184Z,95.30
2019-01-12T02:45:32.872Z,95.40
2019-01-12T02:51:34.783Z,95.50
2019-01-12T02:57:37.212Z,95.60
2019-01-12T03:03:38.652Z,96.00
2019-01-12T03:09:39.960Z,95.50
2019-01-12T03:15:41.265Z,95.70
2019-01-12T03:21:44.480Z,95.50
2019-01-12T03:27:45.938Z,95.70
2019-01-12T03:33:47.344Z,95.80
2019-01-12T03:39:48.649Z,95.70
2019-01-12T03:45:50.010Z,95.70
2019-01-12T03:51:51.569Z,95.70
2019-01-12T03:57:53.904Z,95.80
2019-01-12T04:03:55.368Z,95.80
2019-01-12T04:09:56.729Z,95.80
2019-01-12T04:15:58.140Z,95.70
2019-01-12T04:21:59.452Z,95.90
2019-01-12T04:28:00.856Z,96.10
2019-01-12T04:34:02.196Z,96.10
2019-01-12T04:40:07.400Z,96.10
2019-01-12T04:46:09.185Z,96.10
2019-01-12T04:52:10.677Z,96.10
2019-01-12T04:58:13.059Z,96.10
2019-01-12T05:04:14.641Z,96.20
2019-01-12T05:10:16.045Z,96.30
2019-01-12T05:16:17.454Z,96.40
2019-01-12T05:22:19.254Z,96.40
2019-01-12T05:28:20.668Z,96.40
2019-01-12T05:34:22.096Z,96.50
2019-01-12T05:40:23.410Z,96.60
2019-01-12T05:46:24.813Z,96.70
2019-01-12T05:52:26.332Z,96.70
2019-01-12T05:58:28.668Z,96.60
2019-01-12T06:04:30.232Z,96.60
2019-01-12T06:10:32.606Z,96.60
2019-01-12T06:16:34.008Z,96.70
2019-01-12T06:22:35.461Z,96.70
2019-01-12T06:28:36.872Z,96.70
2019-01-12T06:34:38.303Z,96.70
2019-01-12T06:40:39.615Z,96.80
2019-01-12T06:46:41.348Z,96.70
2019-01-12T06:52:42.809Z,96.70
2019-01-12T06:58:44.973Z,96.70
2019-01-12T07:04:46.553Z,96.60
2019-01-12T07:10:47.961Z,96.70
2019-01-12T07:16:49.367Z,96.70
2019-01-12T07:22:50.783Z,96.80
2019-01-12T07:28:52.184Z,96.80
2019-01-12T07:34:53.526Z,96.80
2019-01-12T07:40:54.924Z,96.60
2019-01-12T07:46:56.412Z,96.50
2019-01-12T07:52:57.975Z,96.40
2019-01-12T07:59:00.411Z,96.40
2019-01-12T08:05:01.989Z,96.20
2019-01-12T08:11:03.551Z,96.10
2019-01-12T08:17:04.977Z,95.90
2019-01-12T08:23:07.533Z,95.90
2019-01-12T08:29:08.992Z,95.90
2019-01-12T08:35:10.437Z,95.90
2019-01-12T08:41:11.844Z,95.70
2019-01-12T08:47:13.228Z,95.40
2019-01-12T08:53:14.748Z,95.00
2019-01-12T08:59:17.033Z,94.50
2019-01-12T09:05:18.620Z,93.80
2019-01-12T09:11:19.941Z,93.40
2019-01-12T09:17:21.352Z,93.40
2019-01-12T09:23:22.687Z,93.20
2019-01-12T09:29:24.140Z,92.90
2019-01-12T09:35:25.488Z,93.10
2019-01-12T09:41:26.884Z,93.10
2019-01-12T09:47:28.280Z,92.90
2019-01-12T09:53:29.784Z,92.90
2019-01-12T09:59:32.000Z,92.60
2019-01-12T10:05:33.496Z,91.60
2019-01-12T10:11:35.000Z,91.20
2019-01-12T10:17:36.280Z,90.70
2019-01-12T10:23:37.748Z,91.10
2019-01-12T10:29:39.317Z,92.10
2019-01-12T10:35:40.761Z,92.30
2019-01-12T10:41:42.168Z,92.50
2019-01-12T10:47:43.677Z,92.20
2019-01-12T10:53:45.113Z,91.20
2019-01-12T10:59:47.406Z,91.10
2019-01-12T11:05:48.916Z,91.00
2019-01-12T11:11:50.320Z,90.60
2019-01-12T11:17:51.732Z,90.60
2019-01-12T11:23:53.140Z,90.60
2019-01-12T11:29:54.562Z,90.80
2019-01-12T11:35:55.961Z,90.90
2019-01-12T11:41:57.379Z,91.30
2019-01-12T11:47:58.844Z,91.60
2019-01-12T11:54:00.419Z,92.10
2019-01-12T12:00:17.840Z,92.90
2019-01-12T12:06:19.382Z,93.20
2019-01-12T12:12:20.832Z,93.60
2019-01-12T12:18:22.213Z,93.20
2019-01-12T12:24:23.621Z,93.20
2019-01-12T12:30:26.884Z,93.10
2019-01-12T12:36:28.242Z,93.20
2019-01-12T12:42:29.640Z,93.10
2019-01-12T12:48:31.008Z,93.30
2019-01-12T12:54:32.509Z,93.00
2019-01-12T13:00:34.024Z,92.60
2019-01-12T13:06:35.556Z,92.60
2019-01-12T13:12:38.055Z,93.00
2019-01-12T13:18:39.438Z,93.30
2019-01-12T13:24:40.740Z,93.40
2019-01-12T13:30:42.113Z,93.30
2019-01-12T13:36:43.588Z,93.30
2019-01-12T13:42:44.983Z,93.60
2019-01-12T13:48:46.877Z,93.30
2019-01-12T13:54:48.309Z,93.20
2019-01-12T14:00:50.732Z,93.00
2019-01-12T14:06:52.232Z,93.00
2019-01-12T14:12:53.616Z,92.90
2019-01-12T14:18:55.048Z,92.90
2019-01-12T14:24:56.504Z,92.80
2019-01-12T14:30:57.872Z,92.80
2019-01-12T14:36:59.304Z,92.70
2019-01-12T14:43:00.735Z,92.40
2019-01-12T14:49:02.197Z,92.60
2019-01-12T14:55:07.745Z,92.40
2019-01-12T15:01:10.037Z,92.50
2019-01-12T15:07:11.554Z,92.20
2019-01-12T15:13:12.909Z,92.20
2019-01-12T15:19:14.291Z,92.00
2019-01-12T15:25:15.649Z,92.10
2019-01-12T15:31:19.319Z,91.90
2019-01-12T15:37:20.388Z,91.90
2019-01-12T15:43:21.812Z,91.80
2019-01-12T15:49:23.192Z,91.60
2019-01-12T15:55:26.232Z,91.30
2019-01-12T16:01:28.556Z,91.30
2019-01-12T16:07:30.100Z,91.40
2019-01-12T16:13:31.485Z,91.50
2019-01-12T16:19:32.885Z,91.40
2019-01-12T16:25:34.264Z,91.30
2019-01-12T16:31:35.737Z,91.20
2019-01-12T16:37:37.192Z,90.90
2019-01-12T16:43:38.596Z,90.80
2019-01-12T16:49:40.062Z,90.80
2019-01-12T16:55:41.552Z,90.80
2019-01-12T17:01:44.124Z,90.90
2019-01-12T17:07:45.636Z,91.20
2019-01-12T17:13:47.036Z,91.00
2019-01-12T17:19:48.452Z,91.30
2019-01-12T17:25:49.798Z,91.40
2019-01-12T17:31:52.358Z,91.60
2019-01-12T17:37:53.772Z,91.50
2019-01-12T17:43:55.181Z,91.60
2019-01-12T17:49:56.677Z,91.50
2019-01-12T17:55:58.198Z,91.40
2019-01-12T18:02:00.564Z,91.30
2019-01-12T18:08:02.152Z,91.20
2019-01-12T18:14:03.532Z,91.10
2019-01-12T18:20:08.590Z,91.00
2019-01-12T18:26:10.001Z,91.00
2019-01-12T18:32:11.432Z,91.00
2019-01-12T18:38:12.768Z,91.10
2019-01-12T18:44:14.052Z,91.20
2019-01-12T18:50:19.244Z,91.30
2019-01-12T18:56:20.768Z,91.40
2019-01-12T19:02:23.397Z,91.50
2019-01-12T19:08:24.965Z,91.50
2019-01-12T19:14:26.277Z,91.40
2019-01-12T19:20:27.700Z,91.40
2019-01-12T19:26:29.173Z,91.50
2019-01-12T19:32:30.627Z,91.50
2019-01-12T19:38:31.973Z,91.50
2019-01-12T19:44:33.292Z,91.50
2019-01-12T19:50:34.776Z,91.80
2019-01-12T19:56:36.264Z,91.40
2019-01-12T20:02:38.444Z,91.50
2019-01-12T20:08:39.955Z,91.60
2019-01-12T20:14:41.272Z,91.50
2019-01-12T20:20:42.732Z,91.60
2019-01-12T20:26:44.064Z,91.50
2019-01-12T20:33:06.055Z,91.80
2019-01-12T20:39:30.282Z,91.70
2019-01-12T20:45:38.456Z,91.40
2019-01-12T20:51:55.589Z,91.40
2019-01-12T20:58:03.679Z,91.40
2019-01-12T21:04:31.304Z,91.30
2019-01-12T21:10:54.131Z,91.20
2019-01-12T21:16:55.653Z,91.10
2019-01-12T21:22:57.076Z,90.90
2019-01-12T21:28:58.357Z,90.80
2019-01-12T21:34:59.737Z,90.70
2019-01-12T21:41:01.101Z,90.70
2019-01-12T21:47:02.496Z,90.80
2019-01-12T21:53:03.929Z,91.00
2019-01-12T21:59:06.360Z,91.90
2019-01-12T22:05:09.669Z,92.80
2019-01-12T22:11:11.276Z,93.50
2019-01-12T22:17:12.592Z,94.00
2019-01-12T22:23:13.981Z,94.30
2019-01-12T22:29:15.362Z,94.50
2019-01-12T22:35:16.825Z,94.60
2019-01-12T22:41:18.343Z,94.50
2019-01-12T22:47:19.728Z,94.60
2019-01-12T22:53:21.107Z,94.50
2019-01-12T22:59:22.577Z,94.60
2019-01-12T23:05:24.924Z,94.40
2019-01-12T23:11:26.432Z,94.30
2019-01-12T23:17:27.887Z,94.30
2019-01-12T23:23:29.257Z,94.20
2019-01-12T23:29:30.634Z,94.40
2019-01-12T23:35:32.096Z,94.60
2019-01-12T23:41:33.594Z,94.80
2019-01-12T23:47:34.976Z,94.90
2019-01-12T23:53:36.297Z,95.10
2019-01-12T23:59:37.801Z,95.40
